Whitehall, Michigan
Current Conditions -  °F | °C
As of 2:04 AM on Sunday 23 Nov 2014 (Local Time) from KMKG Reporting Station
Overcast Overcast  
Wind Chill: 50°   Ceiling: 2400
Heat Index: 50°   Visibility: 8mi
Dew Point: 45°   Wind: 17mph
Humidity: 83%   Direction: 190°S
Pressure: 29.83"   Gusts: 29mph
Location:  43.41°N, 86.35°W
Report Text: KMKG 230704Z AUTO 19015G25KT 8SM BKN024 OVC049 10/07 A2983 RMK AO2 T01000072
Loading
Personal Weather Stations






























Interactive Weather Map New forecast layout! Learn more

10-Day Weather Forecast

Advertisements
Track Severe Weather on mobile